sensor_id;sensor_type;location;lat;lon;timestamp;pressure;altitude;pressure_sealevel;temperature;humidity
61394;BME280;48555;50.952;-0.120;2024-02-15T00:00:58;100832.53;;;14.70;98.65
61394;BME280;48555;50.952;-0.120;2024-02-15T00:03:25;100838.53;;;14.72;98.78
61394;BME280;48555;50.952;-0.120;2024-02-15T00:05:50;100833.13;;;14.74;98.59
61394;BME280;48555;50.952;-0.120;2024-02-15T00:08:15;100839.94;;;14.76;98.64
61394;BME280;48555;50.952;-0.120;2024-02-15T00:10:41;100838.78;;;14.69;98.74
61394;BME280;48555;50.952;-0.120;2024-02-15T00:13:06;100828.25;;;14.69;98.89
61394;BME280;48555;50.952;-0.120;2024-02-15T00:15:32;100831.59;;;14.71;98.88
61394;BME280;48555;50.952;-0.120;2024-02-15T00:17:59;100833.25;;;14.72;98.52
61394;BME280;48555;50.952;-0.120;2024-02-15T00:20:25;100828.25;;;14.69;98.68
61394;BME280;48555;50.952;-0.120;2024-02-15T00:22:50;100838.13;;;14.77;98.75
61394;BME280;48555;50.952;-0.120;2024-02-15T00:25:17;100846.84;;;14.77;98.83
61394;BME280;48555;50.952;-0.120;2024-02-15T00:27:44;100832.44;;;14.72;98.88
61394;BME280;48555;50.952;-0.120;2024-02-15T00:30:10;100847.28;;;14.83;98.91
61394;BME280;48555;50.952;-0.120;2024-02-15T00:32:36;100819.38;;;14.70;98.98
61394;BME280;48555;50.952;-0.120;2024-02-15T00:35:03;100830.38;;;14.85;98.92
61394;BME280;48555;50.952;-0.120;2024-02-15T00:37:33;100830.38;;;14.85;98.81
61394;BME280;48555;50.952;-0.120;2024-02-15T00:39:58;100836.34;;;14.87;99.03
61394;BME280;48555;50.952;-0.120;2024-02-15T00:42:23;100834.25;;;14.91;99.13
61394;BME280;48555;50.952;-0.120;2024-02-15T00:44:49;100826.78;;;14.86;98.94
61394;BME280;48555;50.952;-0.120;2024-02-15T00:47:15;100837.31;;;14.86;99.01
61394;BME280;48555;50.952;-0.120;2024-02-15T00:49:43;100838.69;;;14.90;99.28
61394;BME280;48555;50.952;-0.120;2024-02-15T00:52:09;100828.44;;;14.87;99.09
61394;BME280;48555;50.952;-0.120;2024-02-15T00:54:35;100823.59;;;14.83;98.99
61394;BME280;48555;50.952;-0.120;2024-02-15T00:57:01;100821.78;;;14.83;99.19
61394;BME280;48555;50.952;-0.120;2024-02-15T00:59:26;100815.81;;;14.81;99.11
61394;BME280;48555;50.952;-0.120;2024-02-15T01:01:51;100803.31;;;14.73;99.22
61394;BME280;48555;50.952;-0.120;2024-02-15T01:04:18;100816.81;;;14.80;99.20
61394;BME280;48555;50.952;-0.120;2024-02-15T01:06:43;100812.38;;;14.81;99.15
61394;BME280;48555;50.952;-0.120;2024-02-15T01:09:09;100810.00;;;14.77;98.92
61394;BME280;48555;50.952;-0.120;2024-02-15T01:11:35;100810.13;;;14.76;98.79
61394;BME280;48555;50.952;-0.120;2024-02-15T01:14:01;100809.19;;;14.77;98.89
61394;BME280;48555;50.952;-0.120;2024-02-15T01:16:27;100796.84;;;14.77;98.72
61394;BME280;48555;50.952;-0.120;2024-02-15T01:18:52;100792.66;;;14.75;98.77
61394;BME280;48555;50.952;-0.120;2024-02-15T01:21:18;100791.97;;;14.73;98.66
61394;BME280;48555;50.952;-0.120;2024-02-15T01:23:44;100795.56;;;14.72;98.70
61394;BME280;48555;50.952;-0.120;2024-02-15T01:26:11;100793.50;;;14.75;98.53
61394;BME280;48555;50.952;-0.120;2024-02-15T01:28:37;100787.69;;;14.72;98.52
61394;BME280;48555;50.952;-0.120;2024-02-15T01:31:03;100769.81;;;14.66;98.43
61394;BME280;48555;50.952;-0.120;2024-02-15T01:33:28;100774.38;;;14.64;98.75
61394;BME280;48555;50.952;-0.120;2024-02-15T01:35:54;100773.66;;;14.62;98.81
61394;BME280;48555;50.952;-0.120;2024-02-15T01:38:19;100777.97;;;14.63;98.75
61394;BME280;48555;50.952;-0.120;2024-02-15T01:40:47;100771.16;;;14.60;98.53
61394;BME280;48555;50.952;-0.120;2024-02-15T01:43:12;100773.09;;;14.58;98.61
61394;BME280;48555;50.952;-0.120;2024-02-15T01:45:37;100779.50;;;14.65;98.58
61394;BME280;48555;50.952;-0.120;2024-02-15T01:48:03;100772.00;;;14.61;98.54
61394;BME280;48555;50.952;-0.120;2024-02-15T01:50:29;100769.38;;;14.61;98.42
61394;BME280;48555;50.952;-0.120;2024-02-15T01:52:58;100782.13;;;14.65;98.40
61394;BME280;48555;50.952;-0.120;2024-02-15T01:55:24;100764.38;;;14.58;98.60
61394;BME280;48555;50.952;-0.120;2024-02-15T01:57:50;100766.03;;;14.59;98.69
61394;BME280;48555;50.952;-0.120;2024-02-15T02:00:18;100775.06;;;14.66;98.58
61394;BME280;48555;50.952;-0.120;2024-02-15T02:02:45;100775.91;;;14.66;98.33
61394;BME280;48555;50.952;-0.120;2024-02-15T02:05:11;100767.44;;;14.63;98.27
61394;BME280;48555;50.952;-0.120;2024-02-15T02:07:37;100766.19;;;14.57;98.33
61394;BME280;48555;50.952;-0.120;2024-02-15T02:10:03;100765.34;;;14.57;98.43
61394;BME280;48555;50.952;-0.120;2024-02-15T02:12:29;100773.09;;;14.58;98.44
61394;BME280;48555;50.952;-0.120;2024-02-15T02:14:54;100767.00;;;14.58;98.30
61394;BME280;48555;50.952;-0.120;2024-02-15T02:17:19;100765.22;;;14.58;98.40
61394;BME280;48555;50.952;-0.120;2024-02-15T02:19:46;100767.56;;;14.61;98.10
61394;BME280;48555;50.952;-0.120;2024-02-15T02:22:15;100748.28;;;14.51;98.11
61394;BME280;48555;50.952;-0.120;2024-02-15T02:27:19;100753.31;;;14.64;98.10
61394;BME280;48555;50.952;-0.120;2024-02-15T02:29:46;100746.94;;;14.57;97.82
61394;BME280;48555;50.952;-0.120;2024-02-15T02:32:11;100753.19;;;14.65;98.08
61394;BME280;48555;50.952;-0.120;2024-02-15T02:34:38;100761.91;;;14.66;97.85
61394;BME280;48555;50.952;-0.120;2024-02-15T02:37:03;100746.38;;;14.63;97.86
61394;BME280;48555;50.952;-0.120;2024-02-15T02:39:31;100751.66;;;14.63;97.90
61394;BME280;48555;50.952;-0.120;2024-02-15T02:41:57;100744.59;;;14.63;97.94
61394;BME280;48555;50.952;-0.120;2024-02-15T02:44:22;100742.50;;;14.67;98.08
61394;BME280;48555;50.952;-0.120;2024-02-15T02:46:47;100742.22;;;14.70;98.41
61394;BME280;48555;50.952;-0.120;2024-02-15T02:49:13;100730.75;;;14.71;98.52
61394;BME280;48555;50.952;-0.120;2024-02-15T02:51:38;100737.53;;;14.73;98.58
61394;BME280;48555;50.952;-0.120;2024-02-15T02:54:03;100723.81;;;14.70;98.90
61394;BME280;48555;50.952;-0.120;2024-02-15T02:56:32;100732.84;;;14.77;99.01
61394;BME280;48555;50.952;-0.120;2024-02-15T02:58:57;100734.50;;;14.78;99.24
61394;BME280;48555;50.952;-0.120;2024-02-15T03:01:23;100728.41;;;14.77;99.39
61394;BME280;48555;50.952;-0.120;2024-02-15T03:03:52;100728.13;;;14.81;99.32
61394;BME280;48555;50.952;-0.120;2024-02-15T03:06:17;100722.84;;;14.81;99.43
61394;BME280;48555;50.952;-0.120;2024-02-15T03:08:42;100730.47;;;14.84;99.53
61394;BME280;48555;50.952;-0.120;2024-02-15T03:11:09;100717.72;;;14.79;99.74
61394;BME280;48555;50.952;-0.120;2024-02-15T03:13:34;100715.78;;;14.81;99.85
61394;BME280;48555;50.952;-0.120;2024-02-15T03:16:00;100708.03;;;14.80;99.94
61394;BME280;48555;50.952;-0.120;2024-02-15T03:18:26;100722.69;;;14.82;100.00
61394;BME280;48555;50.952;-0.120;2024-02-15T03:20:51;100718.69;;;14.78;100.00
61394;BME280;48555;50.952;-0.120;2024-02-15T03:23:16;100717.31;;;14.84;100.00
61394;BME280;48555;50.952;-0.120;2024-02-15T03:25:42;100720.22;;;14.81;100.00
61394;BME280;48555;50.952;-0.120;2024-02-15T03:28:08;100706.34;;;14.79;100.00
61394;BME280;48555;50.952;-0.120;2024-02-15T03:30:33;100717.44;;;14.82;100.00
61394;BME280;48555;50.952;-0.120;2024-02-15T03:33:00;100710.41;;;14.83;100.00
61394;BME280;48555;50.952;-0.120;2024-02-15T03:35:26;100719.56;;;14.88;100.00
61394;BME280;48555;50.952;-0.120;2024-02-15T03:37:53;100714.53;;;14.85;100.00
61394;BME280;48555;50.952;-0.120;2024-02-15T03:40:20;100721.19;;;14.89;100.00
61394;BME280;48555;50.952;-0.120;2024-02-15T03:42:46;100705.69;;;14.86;100.00
61394;BME280;48555;50.952;-0.120;2024-02-15T03:45:17;100711.22;;;14.93;100.00
61394;BME280;48555;50.952;-0.120;2024-02-15T03:47:42;100710.38;;;14.92;100.00
61394;BME280;48555;50.952;-0.120;2024-02-15T03:50:08;100710.22;;;14.94;100.00
61394;BME280;48555;50.952;-0.120;2024-02-15T03:52:37;100703.88;;;14.87;100.00
61394;BME280;48555;50.952;-0.120;2024-02-15T03:55:04;100701.94;;;14.89;100.00
61394;BME280;48555;50.952;-0.120;2024-02-15T03:57:29;100706.38;;;14.88;100.00
61394;BME280;48555;50.952;-0.120;2024-02-15T03:59:55;100714.13;;;14.90;100.00
61394;BME280;48555;50.952;-0.120;2024-02-15T04:02:23;100709.97;;;14.87;99.99
61394;BME280;48555;50.952;-0.120;2024-02-15T04:04:51;100713.03;;;14.83;100.00
61394;BME280;48555;50.952;-0.120;2024-02-15T04:07:18;100706.50;;;14.77;100.00
61394;BME280;48555;50.952;-0.120;2024-02-15T04:09:44;100689.75;;;14.78;100.00
61394;BME280;48555;50.952;-0.120;2024-02-15T04:12:10;100689.75;;;14.78;100.00
61394;BME280;48555;50.952;-0.120;2024-02-15T04:14:37;100696.66;;;14.79;100.00
61394;BME280;48555;50.952;-0.120;2024-02-15T04:17:04;100687.66;;;14.72;100.00
61394;BME280;48555;50.952;-0.120;2024-02-15T04:19:30;100694.88;;;14.80;100.00
61394;BME280;48555;50.952;-0.120;2024-02-15T04:21:56;100695.41;;;14.73;100.00
61394;BME280;48555;50.952;-0.120;2024-02-15T04:24:21;100708.59;;;14.83;100.00
61394;BME280;48555;50.952;-0.120;2024-02-15T04:26:47;100696.09;;;14.85;100.00
61394;BME280;48555;50.952;-0.120;2024-02-15T04:29:14;100693.22;;;14.88;100.00
61394;BME280;48555;50.952;-0.120;2024-02-15T04:31:40;100697.63;;;14.88;100.00
61394;BME280;48555;50.952;-0.120;2024-02-15T04:34:05;100690.31;;;14.91;100.00
61394;BME280;48555;50.952;-0.120;2024-02-15T04:36:31;100681.00;;;14.87;100.00
61394;BME280;48555;50.952;-0.120;2024-02-15T04:38:59;100686.16;;;14.89;100.00
61394;BME280;48555;50.952;-0.120;2024-02-15T04:41:27;100686.81;;;14.91;100.00
61394;BME280;48555;50.952;-0.120;2024-02-15T04:43:54;100688.63;;;14.90;100.00
61394;BME280;48555;50.952;-0.120;2024-02-15T04:46:19;100684.63;;;14.86;100.00
61394;BME280;48555;50.952;-0.120;2024-02-15T04:48:48;100697.50;;;14.89;100.00
61394;BME280;48555;50.952;-0.120;2024-02-15T04:51:17;100687.81;;;14.90;100.00
61394;BME280;48555;50.952;-0.120;2024-02-15T04:53:43;100678.91;;;14.91;99.91
61394;BME280;48555;50.952;-0.120;2024-02-15T04:56:11;100679.06;;;14.89;99.75
61394;BME280;48555;50.952;-0.120;2024-02-15T04:58:40;100679.78;;;14.91;99.85
61394;BME280;48555;50.952;-0.120;2024-02-15T05:01:16;100684.59;;;14.96;99.36
61394;BME280;48555;50.952;-0.120;2024-02-15T05:03:44;100691.41;;;14.98;99.69
61394;BME280;48555;50.952;-0.120;2024-02-15T05:06:10;100692.38;;;14.97;99.29
61394;BME280;48555;50.952;-0.120;2024-02-15T05:08:38;100698.19;;;15.01;99.44
61394;BME280;48555;50.952;-0.120;2024-02-15T05:11:11;100694.72;;;15.01;99.00
61394;BME280;48555;50.952;-0.120;2024-02-15T05:13:47;100681.00;;;14.97;99.19
61394;BME280;48555;50.952;-0.120;2024-02-15T05:16:15;100696.38;;;15.02;98.56
61394;BME280;48555;50.952;-0.120;2024-02-15T05:18:41;100686.84;;;15.01;98.92
61394;BME280;48555;50.952;-0.120;2024-02-15T05:21:07;100685.03;;;15.01;98.67
61394;BME280;48555;50.952;-0.120;2024-02-15T05:23:35;100682.25;;;15.03;98.61
61394;BME280;48555;50.952;-0.120;2024-02-15T05:26:02;100685.31;;;14.98;98.41
61394;BME280;48555;50.952;-0.120;2024-02-15T05:28:28;100682.66;;;14.98;98.48
61394;BME280;48555;50.952;-0.120;2024-02-15T05:31:19;100696.38;;;15.02;98.13
61394;BME280;48555;50.952;-0.120;2024-02-15T05:33:51;100681.84;;;14.97;98.38
61394;BME280;48555;50.952;-0.120;2024-02-15T05:36:18;100676.44;;;14.99;98.11
61394;BME280;48555;50.952;-0.120;2024-02-15T05:38:51;100693.63;;;15.03;97.78
61394;BME280;48555;50.952;-0.120;2024-02-15T05:41:17;100681.84;;;14.97;97.71
61394;BME280;48555;50.952;-0.120;2024-02-15T05:43:42;100685.03;;;15.01;97.43
61394;BME280;48555;50.952;-0.120;2024-02-15T05:46:08;100691.94;;;15.02;97.33
61394;BME280;48555;50.952;-0.120;2024-02-15T05:48:35;100684.31;;;14.99;97.17
61394;BME280;48555;50.952;-0.120;2024-02-15T05:51:01;100667.03;;;14.87;97.06
61394;BME280;48555;50.952;-0.120;2024-02-15T05:53:27;100690.56;;;14.98;96.75
61394;BME280;48555;50.952;-0.120;2024-02-15T05:55:52;100684.47;;;14.97;96.50
61394;BME280;48555;50.952;-0.120;2024-02-15T05:58:18;100683.34;;;14.90;96.26
61394;BME280;48555;50.952;-0.120;2024-02-15T06:00:43;100682.53;;;14.90;96.29
61394;BME280;48555;50.952;-0.120;2024-02-15T06:03:10;100677.81;;;14.93;96.35
61394;BME280;48555;50.952;-0.120;2024-02-15T06:05:36;100684.06;;;14.92;96.07
61394;BME280;48555;50.952;-0.120;2024-02-15T06:08:02;100668.13;;;14.84;96.15
61394;BME280;48555;50.952;-0.120;2024-02-15T06:10:27;100672.81;;;14.90;95.83
61394;BME280;48555;50.952;-0.120;2024-02-15T06:12:54;100660.09;;;14.86;95.78
61394;BME280;48555;50.952;-0.120;2024-02-15T06:15:20;100662.84;;;14.84;95.59
61394;BME280;48555;50.952;-0.120;2024-02-15T06:17:46;100655.66;;;14.86;95.56
61394;BME280;48555;50.952;-0.120;2024-02-15T06:20:13;100648.31;;;14.80;95.38
61394;BME280;48555;50.952;-0.120;2024-02-15T06:22:43;100652.31;;;14.84;95.24
61394;BME280;48555;50.952;-0.120;2024-02-15T06:25:09;100648.88;;;14.84;95.05
61394;BME280;48555;50.952;-0.120;2024-02-15T06:27:35;100645.25;;;14.85;95.09
61394;BME280;48555;50.952;-0.120;2024-02-15T06:30:06;100642.78;;;14.83;94.69
61394;BME280;48555;50.952;-0.120;2024-02-15T06:32:50;100644.59;;;14.83;94.86
61394;BME280;48555;50.952;-0.120;2024-02-15T06:35:34;100637.78;;;14.80;94.41
61394;BME280;48555;50.952;-0.120;2024-02-15T06:38:18;100637.78;;;14.80;94.00
61394;BME280;48555;50.952;-0.120;2024-02-15T06:41:02;100640.28;;;14.82;93.72
61394;BME280;48555;50.952;-0.120;2024-02-15T06:43:27;100644.44;;;14.84;93.51
61394;BME280;48555;50.952;-0.120;2024-02-15T06:45:53;100640.44;;;14.80;93.23
61394;BME280;48555;50.952;-0.120;2024-02-15T06:48:18;100633.47;;;14.79;92.92
61394;BME280;48555;50.952;-0.120;2024-02-15T06:50:48;100636.81;;;14.81;92.85
61394;BME280;48555;50.952;-0.120;2024-02-15T06:53:13;100632.94;;;14.75;92.81
61394;BME280;48555;50.952;-0.120;2024-02-15T06:55:38;100640.00;;;14.75;92.82
61394;BME280;48555;50.952;-0.120;2024-02-15T06:58:05;100629.34;;;14.67;92.95
61394;BME280;48555;50.952;-0.120;2024-02-15T07:00:31;100625.75;;;14.68;92.86
61394;BME280;48555;50.952;-0.120;2024-02-15T07:02:56;100622.28;;;14.67;93.02
61394;BME280;48555;50.952;-0.120;2024-02-15T07:05:22;100625.88;;;14.66;92.76
61394;BME280;48555;50.952;-0.120;2024-02-15T07:07:48;100622.69;;;14.63;92.57
61394;BME280;48555;50.952;-0.120;2024-02-15T07:10:14;100622.00;;;14.61;92.68
61394;BME280;48555;50.952;-0.120;2024-02-15T07:12:42;100623.53;;;14.63;92.61
61394;BME280;48555;50.952;-0.120;2024-02-15T07:15:09;100626.84;;;14.65;92.55
61394;BME280;48555;50.952;-0.120;2024-02-15T07:17:35;100637.22;;;14.67;92.34
61394;BME280;48555;50.952;-0.120;2024-02-15T07:20:03;100630.88;;;14.60;92.40
61394;BME280;48555;50.952;-0.120;2024-02-15T07:22:30;100631.16;;;14.57;92.37
61394;BME280;48555;50.952;-0.120;2024-02-15T07:24:56;100635.16;;;14.61;92.04
61394;BME280;48555;50.952;-0.120;2024-02-15T07:27:22;100632.97;;;14.56;91.86
61394;BME280;48555;50.952;-0.120;2024-02-15T07:29:50;100639.03;;;14.57;91.79
61394;BME280;48555;50.952;-0.120;2024-02-15T07:32:15;100638.91;;;14.58;91.39
61394;BME280;48555;50.952;-0.120;2024-02-15T07:34:42;100640.41;;;14.61;91.30
61394;BME280;48555;50.952;-0.120;2024-02-15T07:37:09;100646.38;;;14.63;91.13
61394;BME280;48555;50.952;-0.120;2024-02-15T07:39:34;100640.28;;;14.62;90.82
61394;BME280;48555;50.952;-0.120;2024-02-15T07:42:01;100635.84;;;14.63;90.67
61394;BME280;48555;50.952;-0.120;2024-02-15T07:44:30;100648.03;;;14.64;90.41
61394;BME280;48555;50.952;-0.120;2024-02-15T07:46:58;100639.31;;;14.63;90.19
61394;BME280;48555;50.952;-0.120;2024-02-15T07:49:26;100639.16;;;14.55;89.99
61394;BME280;48555;50.952;-0.120;2024-02-15T07:51:51;100635.72;;;14.54;90.05
61394;BME280;48555;50.952;-0.120;2024-02-15T07:54:20;100631.44;;;14.53;90.03
61394;BME280;48555;50.952;-0.120;2024-02-15T07:56:49;100637.75;;;14.51;89.78
61394;BME280;48555;50.952;-0.120;2024-02-15T07:59:15;100632.91;;;14.46;89.80
61394;BME280;48555;50.952;-0.120;2024-02-15T08:01:44;100626.53;;;14.39;90.03
61394;BME280;48555;50.952;-0.120;2024-02-15T08:04:12;100625.00;;;14.37;90.05
61394;BME280;48555;50.952;-0.120;2024-02-15T08:06:38;100635.97;;;14.42;90.33
61394;BME280;48555;50.952;-0.120;2024-02-15T08:09:03;100626.13;;;14.34;89.81
61394;BME280;48555;50.952;-0.120;2024-02-15T08:11:32;100629.84;;;14.31;89.97
61394;BME280;48555;50.952;-0.120;2024-02-15T08:13:57;100620.16;;;14.32;90.16
61394;BME280;48555;50.952;-0.120;2024-02-15T08:16:25;100624.03;;;14.38;89.98
61394;BME280;48555;50.952;-0.120;2024-02-15T08:18:54;100626.66;;;14.38;90.19
61394;BME280;48555;50.952;-0.120;2024-02-15T08:21:30;100611.72;;;14.38;90.28
61394;BME280;48555;50.952;-0.120;2024-02-15T08:23:58;100612.84;;;14.45;90.18
61394;BME280;48555;50.952;-0.120;2024-02-15T08:26:23;100601.34;;;14.46;90.09
61394;BME280;48555;50.952;-0.120;2024-02-15T08:28:49;100608.81;;;14.51;90.29
61394;BME280;48555;50.952;-0.120;2024-02-15T08:31:14;100601.78;;;14.51;90.56
61394;BME280;48555;50.952;-0.120;2024-02-15T08:33:41;100612.47;;;14.60;90.13
61394;BME280;48555;50.952;-0.120;2024-02-15T08:36:08;100593.63;;;14.54;90.22
61394;BME280;48555;50.952;-0.120;2024-02-15T08:38:35;100605.81;;;14.65;90.07
61394;BME280;48555;50.952;-0.120;2024-02-15T08:41:02;100599.81;;;14.73;90.24
61394;BME280;48555;50.952;-0.120;2024-02-15T08:43:28;100607.44;;;14.86;90.34
61394;BME280;48555;50.952;-0.120;2024-02-15T08:45:54;100604.22;;;15.02;90.57
61394;BME280;48555;50.952;-0.120;2024-02-15T08:48:19;100595.72;;;15.17;90.42
61394;BME280;48555;50.952;-0.120;2024-02-15T08:50:44;100597.75;;;15.33;90.42
61394;BME280;48555;50.952;-0.120;2024-02-15T08:53:10;100598.25;;;15.47;89.74
61394;BME280;48555;50.952;-0.120;2024-02-15T08:55:36;100570.66;;;15.41;88.67
61394;BME280;48555;50.952;-0.120;2024-02-15T08:58:01;100586.81;;;15.56;88.52
61394;BME280;48555;50.952;-0.120;2024-02-15T09:00:27;100587.53;;;15.58;87.65
61394;BME280;48555;50.952;-0.120;2024-02-15T09:02:53;100581.84;;;15.53;86.26
61394;BME280;48555;50.952;-0.120;2024-02-15T09:05:19;100575.63;;;15.54;86.33
61394;BME280;48555;50.952;-0.120;2024-02-15T09:07:45;100574.81;;;15.53;85.55
61394;BME280;48555;50.952;-0.120;2024-02-15T09:10:15;100569.94;;;15.49;85.29
61394;BME280;48555;50.952;-0.120;2024-02-15T09:12:44;100553.50;;;15.37;85.11
61394;BME280;48555;50.952;-0.120;2024-02-15T09:15:12;100570.78;;;15.49;84.94
61394;BME280;48555;50.952;-0.120;2024-02-15T09:17:38;100561.66;;;15.43;84.78
61394;BME280;48555;50.952;-0.120;2024-02-15T09:20:08;100556.53;;;15.42;84.57
61394;BME280;48555;50.952;-0.120;2024-02-15T09:22:57;100553.50;;;15.37;84.50
61394;BME280;48555;50.952;-0.120;2024-02-15T09:25:23;100552.09;;;15.42;84.31
61394;BME280;48555;50.952;-0.120;2024-02-15T09:27:49;100542.09;;;15.46;84.55
61394;BME280;48555;50.952;-0.120;2024-02-15T09:30:16;100547.06;;;15.49;84.26
61394;BME280;48555;50.952;-0.120;2024-02-15T09:32:42;100545.13;;;15.51;84.11
61394;BME280;48555;50.952;-0.120;2024-02-15T09:35:09;100543.31;;;15.52;84.34
61394;BME280;48555;50.952;-0.120;2024-02-15T09:37:43;100547.16;;;15.57;84.14
61394;BME280;48555;50.952;-0.120;2024-02-15T09:40:10;100546.75;;;15.62;83.53
61394;BME280;48555;50.952;-0.120;2024-02-15T09:42:37;100534.28;;;15.54;83.22
61394;BME280;48555;50.952;-0.120;2024-02-15T09:45:05;100532.19;;;15.58;83.05
61394;BME280;48555;50.952;-0.120;2024-02-15T09:47:37;100532.22;;;15.76;83.33
61394;BME280;48555;50.952;-0.120;2024-02-15T09:50:06;100521.88;;;15.92;83.17
61394;BME280;48555;50.952;-0.120;2024-02-15T09:52:32;100531.91;;;16.24;83.37
61394;BME280;48555;50.952;-0.120;2024-02-15T09:55:02;100526.28;;;16.45;83.42
61394;BME280;48555;50.952;-0.120;2024-02-15T09:57:29;100530.53;;;16.64;83.26
61394;BME280;48555;50.952;-0.120;2024-02-15T09:59:54;100507.50;;;16.74;82.83
61394;BME280;48555;50.952;-0.120;2024-02-15T10:02:20;100521.81;;;16.90;82.13
61394;BME280;48555;50.952;-0.120;2024-02-15T10:04:46;100516.91;;;16.95;80.95
61394;BME280;48555;50.952;-0.120;2024-02-15T10:07:13;100517.25;;;17.00;79.46
61394;BME280;48555;50.952;-0.120;2024-02-15T10:09:38;100513.31;;;17.04;78.55
61394;BME280;48555;50.952;-0.120;2024-02-15T10:12:08;100500.06;;;16.96;78.56
61394;BME280;48555;50.952;-0.120;2024-02-15T10:14:34;100523.63;;;17.15;78.52
61394;BME280;48555;50.952;-0.120;2024-02-15T10:17:06;100517.19;;;17.18;77.75
61394;BME280;48555;50.952;-0.120;2024-02-15T10:19:36;100522.66;;;17.24;77.69
61394;BME280;48555;50.952;-0.120;2024-02-15T10:22:09;100506.31;;;17.29;77.46
61394;BME280;48555;50.952;-0.120;2024-02-15T10:24:35;100505.03;;;17.33;77.06
61394;BME280;48555;50.952;-0.120;2024-02-15T10:27:02;100508.19;;;17.37;76.55
61394;BME280;48555;50.952;-0.120;2024-02-15T10:29:36;100509.31;;;17.34;75.82
61394;BME280;48555;50.952;-0.120;2024-02-15T10:32:03;100503.22;;;17.34;75.92
61394;BME280;48555;50.952;-0.120;2024-02-15T10:34:29;100495.28;;;17.34;75.15
61394;BME280;48555;50.952;-0.120;2024-02-15T10:37:10;100485.81;;;17.23;74.57
61394;BME280;48555;50.952;-0.120;2024-02-15T10:39:36;100491.09;;;17.23;74.50
61394;BME280;48555;50.952;-0.120;2024-02-15T10:42:03;100491.75;;;17.17;74.82
61394;BME280;48555;50.952;-0.120;2024-02-15T10:44:28;100490.06;;;17.08;74.46
61394;BME280;48555;50.952;-0.120;2024-02-15T10:46:54;100481.63;;;17.04;74.42
61394;BME280;48555;50.952;-0.120;2024-02-15T10:49:24;100488.19;;;17.00;74.38
61394;BME280;48555;50.952;-0.120;2024-02-15T10:51:57;100483.91;;;16.99;74.50
61394;BME280;48555;50.952;-0.120;2024-02-15T10:54:46;100476.81;;;16.99;74.81
61394;BME280;48555;50.952;-0.120;2024-02-15T10:57:12;100470.00;;;16.89;75.11
61394;BME280;48555;50.952;-0.120;2024-02-15T10:59:45;100466.50;;;16.80;75.22
61394;BME280;48555;50.952;-0.120;2024-02-15T11:02:28;100468.97;;;16.82;75.58
61394;BME280;48555;50.952;-0.120;2024-02-15T11:05:05;100468.31;;;16.79;75.80
61394;BME280;48555;50.952;-0.120;2024-02-15T11:07:38;100463.53;;;16.83;76.04
61394;BME280;48555;50.952;-0.120;2024-02-15T11:10:05;100453.94;;;16.82;75.72
61394;BME280;48555;50.952;-0.120;2024-02-15T11:12:36;100455.53;;;16.75;75.50
61394;BME280;48555;50.952;-0.120;2024-02-15T11:15:01;100454.84;;;16.73;75.89
61394;BME280;48555;50.952;-0.120;2024-02-15T11:17:53;100446.19;;;16.80;75.73
61394;BME280;48555;50.952;-0.120;2024-02-15T11:23:03;100426.06;;;16.79;75.37
61394;BME280;48555;50.952;-0.120;2024-02-15T11:25:35;100411.03;;;16.54;76.00
61394;BME280;48555;50.952;-0.120;2024-02-15T11:30:51;100423.09;;;16.56;76.53
61394;BME280;48555;50.952;-0.120;2024-02-15T11:33:32;100421.91;;;16.51;76.79
61394;BME280;48555;50.952;-0.120;2024-02-15T11:36:10;100419.78;;;16.54;77.53
61394;BME280;48555;50.952;-0.120;2024-02-15T11:38:37;100417.44;;;16.51;76.88
61394;BME280;48555;50.952;-0.120;2024-02-15T11:41:07;100423.59;;;16.60;76.93
61394;BME280;48555;50.952;-0.120;2024-02-15T11:46:15;100414.41;;;16.72;76.05
61394;BME280;48555;50.952;-0.120;2024-02-15T11:48:53;100398.97;;;16.77;76.00
61394;BME280;48555;50.952;-0.120;2024-02-15T11:51:29;100410.94;;;16.98;76.08
61394;BME280;48555;50.952;-0.120;2024-02-15T11:54:05;100403.88;;;17.07;75.61
61394;BME280;48555;50.952;-0.120;2024-02-15T11:56:51;100399.78;;;17.29;75.48
61394;BME280;48555;50.952;-0.120;2024-02-15T11:59:19;100400.66;;;17.45;74.98
61394;BME280;48555;50.952;-0.120;2024-02-15T12:01:57;100393.06;;;17.59;73.68
61394;BME280;48555;50.952;-0.120;2024-02-15T12:04:41;100361.19;;;17.60;72.57
61394;BME280;48555;50.952;-0.120;2024-02-15T12:07:25;100394.59;;;17.86;70.77
61394;BME280;48555;50.952;-0.120;2024-02-15T12:10:17;100373.13;;;17.97;69.70
61394;BME280;48555;50.952;-0.120;2024-02-15T12:13:01;100371.44;;;17.96;66.23
61394;BME280;48555;50.952;-0.120;2024-02-15T12:15:56;100368.31;;;18.01;66.64
61394;BME280;48555;50.952;-0.120;2024-02-15T12:18:40;100364.81;;;18.08;66.18
61394;BME280;48555;50.952;-0.120;2024-02-15T12:21:11;100344.16;;;18.12;65.89
61394;BME280;48555;50.952;-0.120;2024-02-15T12:23:38;100349.13;;;18.07;64.50
61394;BME280;48555;50.952;-0.120;2024-02-15T12:26:04;100327.47;;;18.03;64.62
61394;BME280;48555;50.952;-0.120;2024-02-15T12:28:30;100328.44;;;18.10;64.84
61394;BME280;48555;50.952;-0.120;2024-02-15T12:30:56;100325.78;;;18.10;64.49
61394;BME280;48555;50.952;-0.120;2024-02-15T12:33:24;100329.56;;;18.16;64.49
61394;BME280;48555;50.952;-0.120;2024-02-15T12:36:03;100329.72;;;18.14;63.87
61394;BME280;48555;50.952;-0.120;2024-02-15T12:38:30;100323.47;;;18.07;63.87
61394;BME280;48555;50.952;-0.120;2024-02-15T12:40:55;100327.41;;;18.11;63.64
61394;BME280;48555;50.952;-0.120;2024-02-15T12:43:22;100323.63;;;18.06;63.66
61394;BME280;48555;50.952;-0.120;2024-02-15T12:45:47;100321.50;;;18.01;63.67
61394;BME280;48555;50.952;-0.120;2024-02-15T12:48:12;100326.13;;;18.07;64.08
61394;BME280;48555;50.952;-0.120;2024-02-15T12:50:40;100328.63;;;18.09;64.19
61394;BME280;48555;50.952;-0.120;2024-02-15T12:53:05;100323.47;;;18.07;63.84